createdAt,value
2022-09-10T00:00:08.982Z,100328.63
2022-09-10T00:02:40.728Z,100360.50
2022-09-10T00:05:13.044Z,100360.56
2022-09-10T00:07:44.717Z,100371.19
2022-09-10T00:10:18.544Z,100349.34
2022-09-10T00:12:51.154Z,100345.81
2022-09-10T00:15:22.830Z,100360.72
2022-09-10T00:17:54.196Z,100303.19
2022-09-10T00:20:26.968Z,100351.94
2022-09-10T00:22:58.310Z,100313.56
2022-09-10T00:25:32.229Z,100343.88
2022-09-10T00:28:03.579Z,100370.81
2022-09-10T00:30:40.961Z,100361.94
2022-09-10T00:33:14.114Z,100370.44
2022-09-10T00:35:46.597Z,100331.94
2022-09-10T00:38:18.477Z,100367.41
2022-09-10T00:40:49.867Z,100374.47
2022-09-10T00:43:22.176Z,100361.19
2022-09-10T00:45:55.335Z,100376.09
2022-09-10T00:48:32.257Z,100315.94
2022-09-10T00:51:05.931Z,100361.00
2022-09-10T00:53:37.459Z,100379.44
2022-09-10T00:56:09.049Z,100373.84
2022-09-10T00:58:41.360Z,100370.25
2022-09-10T01:01:13.469Z,100361.56
2022-09-10T01:03:46.200Z,100374.53
2022-09-10T01:06:18.373Z,100363.41
2022-09-10T01:08:49.721Z,100369.38
2022-09-10T01:11:37.773Z,100378.97
2022-09-10T01:14:47.257Z,100371.88
2022-09-10T01:17:37.054Z,100384.28
2022-09-10T01:20:35.077Z,100363.38
2022-09-10T01:23:27.999Z,100382.63
2022-09-10T01:26:25.013Z,100379.09
2022-09-10T01:29:02.363Z,100387.97
2022-09-10T01:31:51.765Z,100381.88
2022-09-10T01:34:51.043Z,100372.38
2022-09-10T01:37:29.372Z,100370.38
2022-09-10T01:40:03.154Z,100375.66
2022-09-10T01:42:38.387Z,100363.66
2022-09-10T01:45:13.992Z,100391.50
2022-09-10T01:48:19.290Z,100380.06
2022-09-10T01:51:08.762Z,100353.09
2022-09-10T01:54:18.757Z,100380.69
2022-09-10T01:57:04.181Z,100353.66
2022-09-10T01:59:44.588Z,100363.03
2022-09-10T02:02:23.916Z,100360.50
2022-09-10T02:04:57.420Z,100378.03
2022-09-10T02:07:32.028Z,100382.31
2022-09-10T02:10:06.645Z,100370.75
2022-09-10T02:12:39.942Z,100369.13
2022-09-10T02:15:12.014Z,100370.00
2022-09-10T02:17:46.556Z,100368.41
2022-09-10T02:20:19.695Z,100374.53
2022-09-10T02:22:56.849Z,100361.19
2022-09-10T02:25:33.556Z,100350.00
2022-09-10T02:28:06.069Z,100335.22
2022-09-10T02:30:37.733Z,100392.75
2022-09-10T02:33:09.077Z,100391.00
2022-09-10T02:35:40.383Z,100367.41
2022-09-10T02:38:11.733Z,100392.75
2022-09-10T02:40:43.222Z,100384.66
2022-09-10T02:43:15.544Z,100350.63
2022-09-10T02:45:46.983Z,100380.31
2022-09-10T02:48:18.316Z,100336.09
2022-09-10T02:50:49.679Z,100395.22
2022-09-10T02:53:21.285Z,100391.00
2022-09-10T02:55:52.856Z,100380.44
2022-09-10T02:58:24.286Z,100352.59
2022-09-10T03:01:05.911Z,100390.06
2022-09-10T03:03:37.678Z,100368.41
2022-09-10T03:06:09.638Z,100331.06
2022-09-10T03:08:41.015Z,100355.66
2022-09-10T03:11:15.296Z,100384.53
2022-09-10T03:13:46.624Z,100378.63
2022-09-10T03:16:19.024Z,100389.16
2022-09-10T03:18:51.933Z,100385.03
2022-09-10T03:21:25.102Z,100355.41
2022-09-10T03:23:57.214Z,100386.28
2022-09-10T03:26:28.722Z,100385.72
2022-09-10T03:29:00.094Z,100358.84
2022-09-10T03:31:32.041Z,100386.41
2022-09-10T03:34:04.099Z,100385.53
2022-09-10T03:36:35.593Z,100371.81
2022-09-10T03:39:06.920Z,100372.66
2022-09-10T03:41:38.293Z,100350.03
2022-09-10T03:44:10.231Z,100376.38
2022-09-10T03:46:41.520Z,100368.38
2022-09-10T03:49:12.849Z,100384.16
2022-09-10T03:51:44.216Z,100367.44
2022-09-10T03:54:15.800Z,100368.31
2022-09-10T03:56:47.113Z,100327.47
2022-09-10T03:59:18.639Z,100371.03
2022-09-10T04:01:50.627Z,100393.56
2022-09-10T04:04:22.074Z,100390.06
2022-09-10T04:06:53.769Z,100363.78
2022-09-10T04:09:25.202Z,100374.28
2022-09-10T04:11:56.853Z,100390.63
2022-09-10T04:14:28.213Z,100385.22
2022-09-10T04:16:59.581Z,100392.19
2022-09-10T04:19:30.939Z,100383.38
2022-09-10T04:22:03.017Z,100378.69
2022-09-10T04:24:34.404Z,100350.09
2022-09-10T04:27:06.301Z,100386.50
2022-09-10T04:29:38.074Z,100342.16
2022-09-10T04:32:09.466Z,100393.41
2022-09-10T04:34:41.105Z,100396.97
2022-09-10T04:37:16.186Z,100350.84
2022-09-10T04:39:51.066Z,100399.56
2022-09-10T04:42:22.790Z,100380.31
2022-09-10T04:44:54.323Z,100391.44
2022-09-10T04:47:25.845Z,100402.81
2022-09-10T04:49:57.471Z,100406.34
2022-09-10T04:52:28.979Z,100395.97
2022-09-10T04:55:00.342Z,100393.25
2022-09-10T04:57:31.685Z,100393.13
2022-09-10T05:00:07.679Z,100403.50
2022-09-10T05:02:39.281Z,100396.59
2022-09-10T05:05:10.618Z,100402.56
2022-09-10T05:07:42.085Z,100414.81
2022-09-10T05:10:15.211Z,100399.16
2022-09-10T05:12:48.010Z,100413.13
2022-09-10T05:15:19.396Z,100399.84
2022-09-10T05:17:51.639Z,100422.56
2022-09-10T05:20:23.106Z,100378.09
2022-09-10T05:22:54.908Z,100408.41
2022-09-10T05:25:27.730Z,100383.81
2022-09-10T05:28:01.048Z,100423.75
2022-09-10T05:30:32.634Z,100413.25
2022-09-10T05:33:04.407Z,100363.53
2022-09-10T05:35:35.847Z,100412.94
2022-09-10T05:38:08.234Z,100421.66
2022-09-10T05:40:42.154Z,100416.16
2022-09-10T05:43:13.433Z,100424.88
2022-09-10T05:45:44.882Z,100410.69
2022-09-10T05:48:16.321Z,100424.56
2022-09-10T05:50:47.728Z,100430.44
2022-09-10T05:53:19.078Z,100432.06
2022-09-10T05:55:50.570Z,100380.50
2022-09-10T05:58:21.934Z,100419.44
2022-09-10T06:00:58.119Z,100427.09
2022-09-10T06:03:29.535Z,100423.31
2022-09-10T06:06:00.906Z,100419.66
2022-09-10T06:08:32.305Z,100428.94
2022-09-10T06:11:05.861Z,100388.56
2022-09-10T06:13:39.573Z,100441.53
2022-09-10T06:16:11.830Z,100428.22
2022-09-10T06:18:44.032Z,100388.88
2022-09-10T06:21:18.283Z,100438.19
2022-09-10T06:23:53.547Z,100396.03
2022-09-10T06:26:25.550Z,100431.69
2022-09-10T06:28:56.950Z,100445.31
2022-09-10T06:31:28.771Z,100445.91
2022-09-10T06:34:01.579Z,100446.69
2022-09-10T06:36:33.880Z,100453.59
2022-09-10T06:39:07.040Z,100461.13
2022-09-10T06:41:39.286Z,100433.69
2022-09-10T06:44:10.909Z,100444.91
2022-09-10T06:49:36.540Z,100457.31
2022-09-10T06:52:08.076Z,100447.25
2022-09-10T06:54:39.743Z,100458.16
2022-09-10T06:57:11.343Z,100436.88
2022-09-10T06:59:43.670Z,100425.34
2022-09-10T07:02:15.253Z,100470.97
2022-09-10T07:04:46.628Z,100419.19
2022-09-10T07:07:17.975Z,100471.06
2022-09-10T07:09:49.271Z,100470.91
2022-09-10T07:12:21.284Z,100475.84
2022-09-10T07:14:52.766Z,100470.47
2022-09-10T07:17:24.057Z,100477.25
2022-09-10T07:19:55.622Z,100452.78
2022-09-10T07:22:26.985Z,100482.63
2022-09-10T07:24:59.285Z,100472.84
2022-09-10T07:27:30.673Z,100495.59
2022-09-10T07:30:02.009Z,100463.06
2022-09-10T07:32:33.667Z,100496.94
2022-09-10T07:35:07.402Z,100476.56
2022-09-10T07:37:39.220Z,100436.69
2022-09-10T07:40:10.708Z,100500.34
2022-09-10T07:42:44.091Z,100488.97
2022-09-10T07:45:16.136Z,100496.22
2022-09-10T07:47:48.669Z,100492.91
2022-09-10T07:50:20.291Z,100505.53
2022-09-10T07:52:52.680Z,100501.50
2022-09-10T07:55:24.188Z,100500.63
2022-09-10T07:57:59.874Z,100480.78
2022-09-10T08:00:31.744Z,100516.25
2022-09-10T08:03:03.203Z,100507.66
2022-09-10T08:05:37.140Z,100511.16
2022-09-10T08:08:10.419Z,100513.75
2022-09-10T08:10:42.155Z,100510.38
2022-09-10T08:13:13.440Z,100520.88
2022-09-10T08:15:45.082Z,100512.31
2022-09-10T08:18:17.151Z,100513.50
2022-09-10T08:20:54.594Z,100530.41
2022-09-10T08:23:25.945Z,100544.31
2022-09-10T08:25:58.274Z,100485.44
2022-09-10T08:28:29.847Z,100499.16
2022-09-10T08:31:07.673Z,100528.19
2022-09-10T08:33:40.084Z,100515.69
2022-09-10T08:36:13.893Z,100547.13
2022-09-10T08:38:46.157Z,100519.19
2022-09-10T08:41:49.475Z,100552.38
2022-09-10T08:44:34.660Z,100505.41
2022-09-10T08:47:25.025Z,100534.16
2022-09-10T08:50:24.632Z,100512.69
2022-09-10T08:53:23.007Z,100562.84
2022-09-10T08:55:58.381Z,100554.47
2022-09-10T08:58:45.173Z,100555.88
2022-09-10T09:01:43.403Z,100571.75
2022-09-10T09:04:34.080Z,100540.72
2022-09-10T09:07:14.478Z,100561.84
2022-09-10T09:09:51.227Z,100572.38
2022-09-10T09:12:58.900Z,100563.00
2022-09-10T09:15:39.143Z,100564.81
2022-09-10T09:18:20.304Z,100557.53
2022-09-10T09:20:56.340Z,100517.63
2022-09-10T09:23:48.058Z,100573.16
2022-09-10T09:26:36.168Z,100563.91
2022-09-10T09:29:18.992Z,100561.94
2022-09-10T09:31:57.792Z,100544.81
2022-09-10T09:34:39.533Z,100570.00
2022-09-10T09:37:17.371Z,100524.09
2022-09-10T09:40:07.159Z,100534.50
2022-09-10T09:42:53.574Z,100557.22
2022-09-10T09:45:37.410Z,100565.69
2022-09-10T09:48:13.526Z,100567.34
2022-09-10T09:50:51.380Z,100562.22
2022-09-10T09:53:27.659Z,100575.91
2022-09-10T09:56:01.845Z,100567.91
2022-09-10T09:58:35.587Z,100573.28
2022-09-10T10:01:10.420Z,100581.59
2022-09-10T10:03:54.462Z,100563.28
2022-09-10T10:06:45.916Z,100576.84
2022-09-10T10:09:22.692Z,100569.28
2022-09-10T10:12:05.860Z,100569.44
2022-09-10T10:14:44.615Z,100568.09
2022-09-10T10:17:32.400Z,100534.28
2022-09-10T10:20:07.220Z,100578.31
2022-09-10T10:22:48.651Z,100547.19
2022-09-10T10:25:41.228Z,100525.69
2022-09-10T10:28:22.675Z,100564.91
2022-09-10T10:30:59.136Z,100541.47
2022-09-10T10:33:33.453Z,100549.53
2022-09-10T10:36:18.714Z,100524.41
2022-09-10T10:39:02.187Z,100570.69
2022-09-10T10:41:41.622Z,100571.03
2022-09-10T10:44:32.333Z,100565.94
2022-09-10T10:47:27.316Z,100572.59
2022-09-10T10:50:19.456Z,100538.06
2022-09-10T10:53:13.000Z,100555.75
2022-09-10T10:55:53.349Z,100548.84
2022-09-10T10:58:54.424Z,100553.94
2022-09-10T11:01:30.078Z,100540.00
2022-09-10T11:04:27.471Z,100560.84
2022-09-10T11:07:18.464Z,100517.34
2022-09-10T11:10:29.757Z,100560.66
2022-09-10T11:13:13.010Z,100563.66
2022-09-10T11:15:52.296Z,100512.72
2022-09-10T11:18:46.037Z,100555.75
2022-09-10T11:21:29.738Z,100539.19
2022-09-10T11:24:19.950Z,100543.63
2022-09-10T11:27:05.546Z,100557.31
2022-09-10T11:29:45.784Z,100549.38
2022-09-10T11:32:27.426Z,100537.47
2022-09-10T11:35:15.320Z,100530.34
2022-09-10T11:38:22.293Z,100545.16
2022-09-10T11:41:13.205Z,100549.19
2022-09-10T11:44:10.598Z,100544.84
2022-09-10T11:47:06.416Z,100540.50
2022-09-10T11:50:16.378Z,100540.06
2022-09-10T11:52:47.935Z,100541.69
2022-09-10T11:55:19.432Z,100504.34
2022-09-10T11:58:11.538Z,100542.22
2022-09-10T12:00:58.940Z,100493.00
2022-09-10T12:04:05.956Z,100507.19
2022-09-10T12:06:52.183Z,100521.81
2022-09-10T12:09:29.525Z,100544.75
2022-09-10T12:12:18.994Z,100533.25
2022-09-10T12:14:50.761Z,100542.09
2022-09-10T12:17:36.776Z,100531.56
2022-09-10T12:20:34.134Z,100539.44
2022-09-10T12:23:06.492Z,100552.84
2022-09-10T12:25:38.513Z,100493.59
2022-09-10T12:28:41.812Z,100544.47
2022-09-10T12:31:15.631Z,100547.84
2022-09-10T12:33:46.985Z,100552.19
2022-09-10T12:36:27.728Z,100541.41
2022-09-10T12:39:22.462Z,100540.03
2022-09-10T12:41:55.700Z,100535.69
2022-09-10T12:44:42.821Z,100534.91
2022-09-10T12:47:17.272Z,100543.69
2022-09-10T12:49:53.144Z,100487.16
2022-09-10T12:52:42.975Z,100542.47
2022-09-10T12:55:40.858Z,100535.31
2022-09-10T12:58:43.943Z,100540.00
2022-09-10T13:01:40.245Z,100529.16
2022-09-10T13:04:34.702Z,100543.13
2022-09-10T13:07:21.416Z,100544.19
2022-09-10T13:10:00.034Z,100539.13
2022-09-10T13:12:35.735Z,100549.34
2022-09-10T13:15:16.368Z,100551.25
2022-09-10T13:17:47.651Z,100553.00
2022-09-10T13:20:31.824Z,100523.06
2022-09-10T13:23:09.153Z,100542.88
2022-09-10T13:25:51.335Z,100501.00
2022-09-10T13:28:28.786Z,100545.91
2022-09-10T13:31:04.339Z,100503.81
2022-09-10T13:33:52.404Z,100548.97
2022-09-10T13:36:48.006Z,100536.56
2022-09-10T13:39:44.090Z,100548.72
2022-09-10T13:42:49.093Z,100540.72
2022-09-10T13:45:30.398Z,100536.13
2022-09-10T13:48:15.102Z,100522.16
2022-09-10T13:51:05.814Z,100552.44
2022-09-10T13:53:43.667Z,100544.28
2022-09-10T13:56:27.523Z,100514.59
2022-09-10T13:59:03.039Z,100551.25
2022-09-10T14:01:53.932Z,100556.56
2022-09-10T14:04:31.959Z,100547.69
2022-09-10T14:07:22.806Z,100492.91
2022-09-10T14:09:59.694Z,100526.06
2022-09-10T14:12:34.502Z,100536.56
2022-09-10T14:15:07.131Z,100529.44
2022-09-10T14:17:45.021Z,100527.63
2022-09-10T14:20:27.457Z,100546.28
2022-09-10T14:23:02.333Z,100535.88
2022-09-10T14:25:36.589Z,100529.44
2022-09-10T14:28:27.660Z,100546.03
2022-09-10T14:31:22.773Z,100499.41
2022-09-10T14:33:55.822Z,100538.91
2022-09-10T14:36:27.620Z,100558.47
2022-09-10T14:39:06.755Z,100557.94
2022-09-10T14:41:38.116Z,100549.50
2022-09-10T14:44:20.370Z,100558.91
2022-09-10T14:46:58.294Z,100556.13
2022-09-10T14:49:34.624Z,100537.22
2022-09-10T14:52:07.716Z,100551.09
2022-09-10T14:54:39.150Z,100570.97
2022-09-10T14:57:14.626Z,100569.75
2022-09-10T14:59:46.404Z,100562.13
2022-09-10T15:02:26.540Z,100577.91
2022-09-10T15:04:57.959Z,100562.91
2022-09-10T15:07:29.300Z,100526.78
2022-09-10T15:10:01.575Z,100563.72
2022-09-10T15:12:33.592Z,100542.66
2022-09-10T15:15:05.739Z,100562.59
2022-09-10T15:17:37.283Z,100531.66
2022-09-10T15:20:17.456Z,100551.34
2022-09-10T15:22:49.164Z,100530.34
2022-09-10T15:25:33.889Z,100525.25
2022-09-10T15:28:10.177Z,100563.09
2022-09-10T15:30:41.618Z,100560.09
2022-09-10T15:33:14.572Z,100568.09
2022-09-10T15:35:47.168Z,100562.97
2022-09-10T15:38:21.312Z,100530.44
2022-09-10T15:41:05.598Z,100534.78
2022-09-10T15:43:39.694Z,100551.31
2022-09-10T15:46:13.297Z,100533.59
2022-09-10T15:48:47.353Z,100568.38
2022-09-10T15:51:21.478Z,100535.91
2022-09-10T15:53:53.962Z,100517.25
2022-09-10T15:56:28.324Z,100542.97
2022-09-10T15:58:59.750Z,100557.44
2022-09-10T16:01:32.106Z,100555.41
2022-09-10T16:04:04.643Z,100527.41
2022-09-10T16:06:39.222Z,100543.16
2022-09-10T16:09:12.825Z,100562.03
2022-09-10T16:11:44.664Z,100561.31
2022-09-10T16:14:16.709Z,100573.50
2022-09-10T16:16:50.879Z,100566.75
2022-09-10T16:19:23.211Z,100573.56
2022-09-10T16:21:54.604Z,100572.53
2022-09-10T16:24:25.931Z,100572.94
2022-09-10T16:26:57.405Z,100563.38
2022-09-10T16:29:28.793Z,100582.06
2022-09-10T16:32:00.207Z,100579.88
2022-09-10T16:34:31.578Z,100578.31
2022-09-10T16:37:03.438Z,100566.59
2022-09-10T16:39:34.790Z,100581.53
2022-09-10T16:42:06.287Z,100581.84
2022-09-10T16:44:37.614Z,100581.31
2022-09-10T16:47:09.042Z,100586.72
2022-09-10T16:49:40.352Z,100563.91
2022-09-10T16:52:12.094Z,100598.31
2022-09-10T16:54:45.968Z,100556.19
2022-09-10T16:57:17.558Z,100582.28
2022-09-10T16:59:49.218Z,100586.72
2022-09-10T17:02:20.584Z,100591.13
2022-09-10T17:04:52.457Z,100598.41
2022-09-10T17:07:23.915Z,100592.50
2022-09-10T17:10:00.103Z,100585.41
2022-09-10T17:12:32.179Z,100596.84
2022-09-10T17:15:03.884Z,100597.72
2022-09-10T17:17:35.183Z,100596.75
2022-09-10T17:20:07.345Z,100603.09
2022-09-10T17:22:38.644Z,100579.09
2022-09-10T17:25:10.011Z,100610.38
2022-09-10T17:27:41.365Z,100601.78
2022-09-10T17:30:12.872Z,100618.16
2022-09-10T17:32:44.181Z,100623.03
2022-09-10T17:35:15.526Z,100619.72
2022-09-10T17:37:47.513Z,100618.84
2022-09-10T17:40:20.043Z,100584.63
2022-09-10T17:42:51.370Z,100579.41
2022-09-10T17:45:22.800Z,100624.13
2022-09-10T17:47:54.183Z,100628.47
2022-09-10T17:50:25.504Z,100638.91
2022-09-10T17:52:57.391Z,100636.53
2022-09-10T17:55:33.473Z,100633.00
2022-09-10T17:58:05.205Z,100639.88
2022-09-10T18:00:40.578Z,100618.44
2022-09-10T18:03:12.427Z,100630.53
2022-09-10T18:05:45.028Z,100649.19
2022-09-10T18:08:16.470Z,100653.69
2022-09-10T18:10:48.574Z,100652.91
2022-09-10T18:13:20.807Z,100652.34
2022-09-10T18:15:52.421Z,100653.28
2022-09-10T18:18:23.742Z,100648.53
2022-09-10T18:20:56.336Z,100655.78
2022-09-10T18:23:27.685Z,100654.19
2022-09-10T18:25:59.423Z,100663.13
2022-09-10T18:28:30.694Z,100662.31
2022-09-10T18:31:03.497Z,100663.56
2022-09-10T18:33:40.595Z,100648.78
2022-09-10T18:36:17.775Z,100657.84
2022-09-10T18:38:49.078Z,100649.75
2022-09-10T18:41:25.930Z,100635.81
2022-09-10T18:44:00.680Z,100655.97
2022-09-10T18:46:33.037Z,100621.31
2022-09-10T18:49:05.159Z,100657.34
2022-09-10T18:51:36.435Z,100624.50
2022-09-10T18:54:09.027Z,100646.56
2022-09-10T18:56:41.512Z,100631.03
2022-09-10T18:59:15.486Z,100647.13
2022-09-10T19:01:48.377Z,100695.28
2022-09-10T19:04:23.667Z,100636.94
2022-09-10T19:06:56.312Z,100690.56
2022-09-10T19:09:30.175Z,100704.25
2022-09-10T19:12:02.365Z,100707.88
2022-09-10T19:14:35.661Z,100685.44
2022-09-10T19:17:07.001Z,100710.81
2022-09-10T19:19:38.424Z,100711.03
2022-09-10T19:22:10.583Z,100668.28
2022-09-10T19:24:54.579Z,100649.34
2022-09-10T19:27:26.689Z,100731.81
2022-09-10T19:29:58.093Z,100743.34
2022-09-10T19:32:29.545Z,100730.28
2022-09-10T19:35:01.195Z,100720.63
2022-09-10T19:37:32.519Z,100730.34
2022-09-10T19:40:04.237Z,100731.09
2022-09-10T19:42:35.582Z,100737.47
2022-09-10T19:45:10.179Z,100741.00
2022-09-10T19:47:42.905Z,100747.38
2022-09-10T19:50:14.390Z,100752.13
2022-09-10T19:52:45.795Z,100741.69
2022-09-10T19:55:18.044Z,100741.88
2022-09-10T19:57:50.278Z,100700.09
2022-09-10T20:00:43.418Z,100744.75
2022-09-10T20:03:14.117Z,100710.09
2022-09-10T20:05:46.151Z,100742.66
2022-09-10T20:08:17.450Z,100735.00
2022-09-10T20:10:51.833Z,100694.31
2022-09-10T20:13:23.369Z,100694.56
2022-09-10T20:15:56.082Z,100687.69
2022-09-10T20:18:28.544Z,100689.00
2022-09-10T20:21:13.994Z,100730.91
2022-09-10T20:23:47.843Z,100717.22
2022-09-10T20:26:31.621Z,100697.53
2022-09-10T20:29:06.090Z,100730.28
2022-09-10T20:31:40.921Z,100736.63
2022-09-10T20:34:15.334Z,100724.53
2022-09-10T20:36:48.146Z,100732.88
2022-09-10T20:39:21.891Z,100707.69
2022-09-10T20:41:53.582Z,100729.69
2022-09-10T20:44:25.865Z,100746.59
2022-09-10T20:46:57.220Z,100734.44
2022-09-10T20:49:28.703Z,100744.38
2022-09-10T20:52:00.077Z,100749.03
2022-09-10T20:54:31.392Z,100747.59
2022-09-10T20:57:02.936Z,100749.56
2022-09-10T20:59:34.532Z,100747.91
2022-09-10T21:02:06.761Z,100737.44
2022-09-10T21:04:39.517Z,100750.88
2022-09-10T21:07:10.844Z,100753.72
2022-09-10T21:09:42.148Z,100767.91
2022-09-10T21:12:13.537Z,100768.94
2022-09-10T21:14:44.890Z,100715.69
2022-09-10T21:17:16.235Z,100754.22
2022-09-10T21:19:47.856Z,100768.44
2022-09-10T21:22:20.210Z,100761.41
2022-09-10T21:24:51.662Z,100731.63
2022-09-10T21:27:23.984Z,100739.63
2022-09-10T21:29:55.345Z,100758.94
2022-09-10T21:32:26.671Z,100782.75
2022-09-10T21:34:59.267Z,100783.78
2022-09-10T21:37:30.808Z,100768.09
2022-09-10T21:40:03.003Z,100766.47
2022-09-10T21:42:34.338Z,100770.84
2022-09-10T21:45:07.000Z,100791.06
2022-09-10T21:47:38.777Z,100793.75
2022-09-10T21:50:10.189Z,100744.97
2022-09-10T21:52:41.538Z,100791.22
2022-09-10T21:55:12.935Z,100798.38
2022-09-10T21:57:44.349Z,100788.81
2022-09-10T22:00:16.165Z,100789.03
2022-09-10T22:02:49.464Z,100777.00
2022-09-10T22:05:21.343Z,100771.78
2022-09-10T22:07:52.959Z,100799.16
2022-09-10T22:10:24.271Z,100807.22
2022-09-10T22:12:56.761Z,100791.69
2022-09-10T22:15:28.232Z,100748.94
2022-09-10T22:17:59.880Z,100755.97
2022-09-10T22:20:33.474Z,100751.66
2022-09-10T22:23:04.860Z,100800.88
2022-09-10T22:25:36.228Z,100799.13
2022-09-10T22:28:07.569Z,100814.13
2022-09-10T22:30:38.833Z,100805.38
2022-09-10T22:33:10.252Z,100752.97
2022-09-10T22:35:41.666Z,100801.22
2022-09-10T22:38:16.852Z,100805.69
2022-09-10T22:40:51.322Z,100820.56
2022-09-10T22:43:22.652Z,100816.88
2022-09-10T22:45:54.084Z,100817.47
2022-09-10T22:48:25.474Z,100825.03
2022-09-10T22:50:56.842Z,100820.28
2022-09-10T22:53:28.266Z,100832.16
2022-09-10T22:56:00.940Z,100812.56
2022-09-10T22:58:33.163Z,100843.63
2022-09-10T23:01:15.947Z,100838.94
2022-09-10T23:03:48.515Z,100812.44
2022-09-10T23:06:22.620Z,100841.91
2022-09-10T23:08:56.817Z,100827.59
2022-09-10T23:11:30.453Z,100806.53
2022-09-10T23:14:05.543Z,100856.25
2022-09-10T23:16:39.710Z,100824.06
2022-09-10T23:19:13.608Z,100859.19
2022-09-10T23:21:47.376Z,100865.66
2022-09-10T23:24:21.848Z,100861.56
2022-09-10T23:26:53.768Z,100863.50
2022-09-10T23:29:25.287Z,100862.84
2022-09-10T23:31:56.601Z,100843.97
2022-09-10T23:34:28.002Z,100858.25
2022-09-10T23:36:59.361Z,100856.75
2022-09-10T23:39:30.695Z,100863.84
2022-09-10T23:42:02.243Z,100875.69
2022-09-10T23:44:35.017Z,100874.13
2022-09-10T23:47:06.931Z,100820.06
2022-09-10T23:49:38.340Z,100818.53
2022-09-10T23:52:09.860Z,100869.38
2022-09-10T23:54:41.676Z,100860.75
2022-09-10T23:57:13.156Z,100858.41
2022-09-10T23:59:44.740Z,100871.72
